Time;durP1;ratioP1;P1;durP2;ratioP2;P2;SDS_P1;SDS_P2;PMS_P1;PMS_P2;Temp;Humidity;BMP_temperature;BMP_pressure;BME280_temperature;BME280_humidity;BME280_pressure;Samples;Min_cycle;Max_cycle;Signal;HPM_P1;HPM_P2
2023/02/14 00:00:25;;;;;;;;;;;;;;;;;;;;;
2023/02/14 00:03:48;;;;;;;26.30;11.50;;;;;;;;;;106460;1281;25341;-81
2023/02/14 00:06:37;;;;;;;29.30;13.10;;;;;;;;;;106409;1282;25284;-79
2023/02/14 00:09:30;;;;;;;27.90;11.50;;;;;;;;;;106441;1281;25363;-82
2023/02/14 00:12:23;;;;;;;27.30;12.40;;;;;;;;;;106411;1270;22543;-83
2023/02/14 00:21:50;;;;;;;26.00;11.20;;;;;;;;;;106957;1266;22986;-82
2023/02/14 00:24:50;;;;;;;;;;;;;;;;;;;;;
2023/02/14 00:27:40;;;;;;;26.20;11.40;;;;;;;;;;106927;1276;25367;-82
2023/02/14 00:30:38;;;;;;;;;;;;;;;;;;;;;
2023/02/14 00:33:37;;;;;;;27.50;11.90;;;;;;;;;;106940;1257;24256;-78
2023/02/14 00:36:44;;;;;;;28.70;11.20;;;;;;;;;;107057;1276;22561;-77
2023/02/14 00:39:38;;;;;;;25.70;11.50;;;;;;;;;;107047;1276;22543;-84
2023/02/14 00:42:40;;;;;;;27.90;11.50;;;;;;;;;;107044;1258;24243;-78
2023/02/14 00:45:33;;;;;;;29.30;12.80;;;;;;;;;;107055;1276;25434;-83
2023/02/14 00:48:28;;;;;;;27.30;12.20;;;;;;;;;;106910;1276;22531;-83
2023/02/14 00:51:32;;;;;;;25.70;11.80;;;;;;;;;;107099;1276;22534;-78
2023/02/14 00:54:32;;;;;;;28.80;11.90;;;;;;;;;;107041;1275;24260;-85
2023/02/14 00:57:29;;;;;;;27.40;12.80;;;;;;;;;;107092;1276;22987;-82
2023/02/14 01:00:05;;;;;;;27.20;12.30;;;;;;;;;;106947;1275;25312;-81
2023/02/14 01:03:25;;;;;;;;;;;;;;;;;;;;;
2023/02/14 01:06:14;;;;;;;24.40;9.60;;;;;;;;;;107074;1276;22524;-85
2023/02/14 01:09:12;;;;;;;26.10;11.60;;;;;;;;;;106904;1254;22530;-83
2023/02/14 01:11:55;;;;;;;;;;;;;;;;;;;;;
2023/02/14 01:14:58;;;;;;;27.30;12.30;;;;;;;;;;107029;1257;24243;-79
2023/02/14 01:18:27;;;;;;;29.50;12.30;;;;;;;;;;107092;1276;22547;-78
2023/02/14 01:21:38;;;;;;;24.30;10.00;;;;;;;;;;107102;1276;24262;-83
2023/02/14 01:24:21;;;;;;;;;;;;;;;;;;;;;
2023/02/14 01:27:04;;;;;;;34.00;12.40;;;;;;;;;;106940;1275;22530;-84
2023/02/14 01:32:52;;;;;;;26.90;11.80;;;;;;;;;;106798;1276;25581;-78
2023/02/14 01:38:29;;;;;;;33.00;13.20;;;;;;;;;;106886;1276;25466;-77
2023/02/14 01:41:28;;;;;;;30.00;12.70;;;;;;;;;;106926;1275;22500;-84
2023/02/14 01:44:24;;;;;;;31.20;13.10;;;;;;;;;;106893;1257;22533;-84
2023/02/14 01:47:36;;;;;;;30.00;12.10;;;;;;;;;;107047;1276;22658;-83
2023/02/14 01:50:48;;;;;;;30.50;12.00;;;;;;;;;;106930;1275;25534;-82
2023/02/14 01:54:16;;;;;;;30.80;12.00;;;;;;;;;;107025;1254;22534;-81
2023/02/14 01:57:12;;;;;;;30.50;12.40;;;;;;;;;;106947;1269;22539;-79
2023/02/14 02:03:48;;;;;;;30.50;12.50;;;;;;;;;;106964;1275;22526;-79
2023/02/14 02:06:42;;;;;;;;;;;;;;;;;;;;;
2023/02/14 02:10:17;;;;;;;27.70;11.10;;;;;;;;;;106471;1282;22530;-80
2023/02/14 02:13:01;;;;;;;30.40;12.50;;;;;;;;;;106469;1282;22550;-82
2023/02/14 02:15:54;;;;;;;;;;;;;;;;;;;;;
2023/02/14 02:19:23;;;;;;;28.70;11.60;;;;;;;;;;106696;1281;22564;-84
2023/02/14 02:22:28;;;;;;;26.70;11.40;;;;;;;;;;106736;1281;22548;-81
2023/02/14 02:25:27;;;;;;;33.30;12.40;;;;;;;;;;106747;1262;25307;-78
2023/02/14 02:28:23;;;;;;;30.20;13.00;;;;;;;;;;106479;1281;22996;-77
2023/02/14 02:31:21;;;;;;;31.20;12.60;;;;;;;;;;106729;1281;25499;-77
2023/02/14 02:34:40;;;;;;;36.00;14.70;;;;;;;;;;106539;1281;22539;-84
2023/02/14 02:37:12;;;;;;;31.20;12.90;;;;;;;;;;110042;1261;22204;-77
2023/02/14 02:40:05;;;;;;;30.70;12.30;;;;;;;;;;110091;1281;22129;-77
2023/02/14 02:43:00;;;;;;;30.20;12.20;;;;;;;;;;110230;1275;22751;-78
2023/02/14 02:49:06;;;;;;;28.30;12.10;;;;;;;;;;110593;1276;22133;-77
2023/02/14 02:54:44;;;;;;;27.20;12.30;;;;;;;;;;110495;1276;22115;-77
2023/02/14 02:57:15;;;;;;;27.50;11.10;;;;;;;;;;110586;1253;22143;-77
2023/02/14 02:59:44;;;;;;;25.20;10.40;;;;;;;;;;110483;1275;22174;-77
2023/02/14 03:02:10;;;;;;;25.30;10.00;;;;;;;;;;110630;1276;22139;-77
2023/02/14 03:07:44;;;;;;;23.30;10.00;;;;;;;;;;110125;1260;23048;-77
2023/02/14 03:10:32;;;;;;;24.60;10.80;;;;;;;;;;110158;1277;22450;-78
2023/02/14 03:13:20;;;;;;;21.60;8.10;;;;;;;;;;110286;1279;23091;-77
2023/02/14 03:15:50;;;;;;;27.10;10.50;;;;;;;;;;110203;1257;23433;-78
2023/02/14 03:18:36;;;;;;;26.30;10.60;;;;;;;;;;110154;1279;23046;-78
2023/02/14 03:21:09;;;;;;;23.70;10.90;;;;;;;;;;110133;1279;22404;-77
2023/02/14 03:24:05;;;;;;;28.40;11.20;;;;;;;;;;110163;1279;22939;-78
2023/02/14 03:26:41;;;;;;;28.10;11.80;;;;;;;;;;110174;1259;22145;-77
2023/02/14 03:29:11;;;;;;;27.30;11.30;;;;;;;;;;110178;1279;22168;-77
2023/02/14 03:31:40;;;;;;;26.60;10.90;;;;;;;;;;110151;1279;22741;-78
2023/02/14 03:34:14;;;;;;;23.30;10.70;;;;;;;;;;110260;1279;22154;-78
2023/02/14 03:36:51;;;;;;;24.90;10.90;;;;;;;;;;110111;1259;22126;-77
2023/02/14 03:39:22;;;;;;;23.10;9.80;;;;;;;;;;110237;1279;22170;-77
2023/02/14 03:41:55;;;;;;;23.60;9.70;;;;;;;;;;110213;1276;22166;-77
2023/02/14 03:44:27;;;;;;;21.40;9.40;;;;;;;;;;110379;1276;22138;-77
2023/02/14 03:47:28;;;;;;;;;;;;;;;;;;;;;
2023/02/14 03:54:05;;;;;;;27.60;11.00;;;;;;;;;;110020;1282;22168;-77
2023/02/14 04:07:28;;;;;;;29.30;12.50;;;;;;;;;;109492;1270;22190;-77
2023/02/14 04:09:57;;;;;;;31.60;11.90;;;;;;;;;;109495;1291;22221;-77
2023/02/14 04:12:24;;;;;;;29.50;11.80;;;;;;;;;;109364;1291;22153;-77
2023/02/14 04:14:54;;;;;;;28.10;11.90;;;;;;;;;;109530;1291;22189;-77
2023/02/14 04:20:09;;;;;;;28.40;12.00;;;;;;;;;;109345;1291;23171;-77
2023/02/14 04:22:39;;;;;;;28.50;12.40;;;;;;;;;;109501;1291;22702;-77
2023/02/14 04:25:08;;;;;;;24.80;10.30;;;;;;;;;;109361;1292;22445;-77
2023/02/14 04:27:40;;;;;;;25.40;10.40;;;;;;;;;;109782;1264;22311;-77
2023/02/14 04:30:11;;;;;;;26.50;11.40;;;;;;;;;;109861;1286;22204;-77
2023/02/14 04:40:04;;;;;;;26.10;10.50;;;;;;;;;;109886;1262;22326;-77
2023/02/14 04:42:31;;;;;;;26.00;11.10;;;;;;;;;;109903;1285;22171;-77
2023/02/14 04:48:52;;;;;;;25.00;11.40;;;;;;;;;;109768;1264;23198;-77
2023/02/14 04:51:19;;;;;;;25.80;11.10;;;;;;;;;;107984;1288;2305887;-77
2023/02/14 04:53:46;;;;;;;26.80;10.60;;;;;;;;;;109753;1288;22172;-78
2023/02/14 04:56:15;;;;;;;28.90;10.90;;;;;;;;;;109739;1288;22125;-77
2023/02/14 04:58:45;;;;;;;26.20;10.80;;;;;;;;;;109634;1267;22720;-78
2023/02/14 05:01:13;;;;;;;24.30;10.20;;;;;;;;;;109735;1288;22179;-78
2023/02/14 05:03:50;;;;;;;;;;;;;;;;;;;;;
2023/02/14 05:06:32;;;;;;;24.90;9.30;;;;;;;;;;109748;1288;22633;-77
2023/02/14 05:09:05;;;;;;;25.40;10.70;;;;;;;;;;109770;1264;22182;-77
2023/02/14 05:11:32;;;;;;;25.00;9.60;;;;;;;;;;109658;1288;22211;-77
2023/02/14 05:14:09;;;;;;;25.20;10.20;;;;;;;;;;109882;1284;22174;-77
2023/02/14 05:21:15;;;;;;;24.00;9.90;;;;;;;;;;110172;1262;23009;-78
2023/02/14 05:23:50;;;;;;;24.40;10.60;;;;;;;;;;110128;1281;22175;-78
2023/02/14 05:26:18;;;;;;;27.30;10.70;;;;;;;;;;110121;1281;22162;-77
2023/02/14 05:28:47;;;;;;;24.30;10.80;;;;;;;;;;110016;1281;22153;-77
2023/02/14 05:31:14;;;;;;;25.30;11.70;;;;;;;;;;110186;1258;22131;-77
2023/02/14 05:33:41;;;;;;;24.40;11.00;;;;;;;;;;109994;1281;22317;-77
2023/02/14 05:36:07;;;;;;;26.20;10.00;;;;;;;;;;110049;1281;22175;-77
2023/02/14 05:38:34;;;;;;;22.00;10.20;;;;;;;;;;109962;1281;22153;-77
2023/02/14 05:41:01;;;;;;;27.70;11.00;;;;;;;;;;110368;1262;22181;-77
2023/02/14 05:43:29;;;;;;;26.40;10.20;;;;;;;;;;110017;1281;22156;-77
2023/02/14 05:45:56;;;;;;;26.40;10.70;;;;;;;;;;110014;1281;22144;-77
2023/02/14 05:48:23;;;;;;;25.60;11.40;;;;;;;;;;110322;1276;22251;-77
2023/02/14 05:50:53;;;;;;;25.30;10.90;;;;;;;;;;110539;1259;22117;-77
2023/02/14 05:53:50;;;;;;;;;;;;;;;;;;;;;
2023/02/14 06:00:25;;;;;;;25.20;12.20;;;;;;;;;;110030;1265;22039;-78
2023/02/14 06:02:54;;;;;;;30.20;11.40;;;;;;;;;;110052;1282;22158;-78
2023/02/14 06:05:25;;;;;;;28.00;11.70;;;;;;;;;;110024;1282;22945;-77
2023/02/14 06:07:52;;;;;;;24.70;10.90;;;;;;;;;;110037;1282;22632;-77
2023/02/14 06:10:21;;;;;;;26.80;12.60;;;;;;;;;;109992;1259;22378;-78
2023/02/14 06:12:48;;;;;;;29.10;12.00;;;;;;;;;;110027;1282;22154;-77
2023/02/14 06:15:18;;;;;;;26.10;11.40;;;;;;;;;;109995;1282;22294;-77
2023/02/14 06:17:50;;;;;;;28.50;11.80;;;;;;;;;;110012;1282;22187;-78
2023/02/14 06:20:20;;;;;;;27.90;11.90;;;;;;;;;;110049;1259;23134;-77
2023/02/14 06:22:47;;;;;;;30.50;11.40;;;;;;;;;;109977;1283;22173;-77
2023/02/14 06:25:14;;;;;;;24.30;10.90;;;;;;;;;;110006;1282;22143;-77
2023/02/14 06:27:41;;;;;;;39.10;13.30;;;;;;;;;;110039;1282;22986;-77
2023/02/14 06:30:09;;;;;;;29.80;12.10;;;;;;;;;;110071;1282;22297;-78
2023/02/14 06:32:40;;;;;;;33.20;13.20;;;;;;;;;;110030;1264;22866;-77
2023/02/14 06:42:13;;;;;;;33.90;11.90;;;;;;;;;;110008;1262;23010;-77
2023/02/14 06:44:40;;;;;;;32.30;12.90;;;;;;;;;;109872;1284;22176;-77
2023/02/14 06:47:07;;;;;;;28.50;11.40;;;;;;;;;;109891;1285;22927;-77
2023/02/14 06:49:34;;;;;;;34.70;12.30;;;;;;;;;;109946;1285;23402;-77
2023/02/14 06:52:02;;;;;;;28.00;11.30;;;;;;;;;;110055;1265;22101;-77
2023/02/14 06:54:29;;;;;;;29.80;10.90;;;;;;;;;;109872;1285;22166;-77
2023/02/14 06:56:56;;;;;;;27.30;11.90;;;;;;;;;;109954;1285;22163;-78
2023/02/14 06:59:25;;;;;;;29.00;12.40;;;;;;;;;;109910;1285;22986;-78
2023/02/14 07:01:52;;;;;;;28.40;12.00;;;;;;;;;;109908;1264;22164;-77
2023/02/14 07:04:19;;;;;;;32.20;12.80;;;;;;;;;;109941;1285;22160;-77
2023/02/14 07:06:51;;;;;;;28.30;12.00;;;;;;;;;;109958;1285;22187;-77
2023/02/14 07:09:20;;;;;;;29.10;12.10;;;;;;;;;;109873;1285;22192;-77
2023/02/14 07:11:47;;;;;;;29.10;13.00;;;;;;;;;;109910;1266;22166;-78
2023/02/14 07:14:17;;;;;;;35.30;13.80;;;;;;;;;;109870;1278;22138;-77
2023/02/14 07:16:44;;;;;;;33.20;14.10;;;;;;;;;;110278;1278;22143;-77
2023/02/14 07:19:11;;;;;;;40.60;18.80;;;;;;;;;;110297;1279;22106;-77
2023/02/14 07:21:41;;;;;;;45.00;21.40;;;;;;;;;;110301;1256;22159;-77
2023/02/14 07:24:18;;;;;;;48.30;23.10;;;;;;;;;;110180;1278;22812;-77
2023/02/14 07:26:45;;;;;;;53.40;26.90;;;;;;;;;;110229;1278;22119;-77
2023/02/14 07:29:42;;;;;;;;;;;;;;;;;;;;;
2023/02/14 07:32:41;;;;;;;34.70;18.00;;;;;;;;;;109868;1267;22366;-77
2023/02/14 07:35:08;;;;;;;32.60;14.40;;;;;;;;;;109898;1285;22256;-77
2023/02/14 07:37:35;;;;;;;33.80;16.00;;;;;;;;;;109870;1285;22839;-77
2023/02/14 07:40:06;;;;;;;32.50;12.10;;;;;;;;;;109880;1285;22137;-77
2023/02/14 07:42:45;;;;;;;32.10;12.40;;;;;;;;;;109762;1267;22174;-78
2023/02/14 07:45:13;;;;;;;27.70;11.90;;;;;;;;;;109902;1285;22828;-77
2023/02/14 07:47:39;;;;;;;30.80;12.60;;;;;;;;;;109821;1285;22170;-77
2023/02/14 07:50:07;;;;;;;43.00;20.60;;;;;;;;;;109897;1285;22241;-77
2023/02/14 07:59:48;;;;;;;30.30;13.50;;;;;;;;;;109638;1290;22198;-77
2023/02/14 08:02:15;;;;;;;31.80;14.50;;;;;;;;;;109625;1265;22382;-78
2023/02/14 08:04:42;;;;;;;34.30;14.60;;;;;;;;;;109557;1289;22146;-77
2023/02/14 08:07:31;;;;;;;26.80;12.30;;;;;;;;;;109710;1288;22192;-77
2023/02/14 08:09:58;;;;;;;29.10;12.80;;;;;;;;;;109902;1284;22160;-78
2023/02/14 08:18:17;;;;;;;27.90;11.80;;;;;;;;;;109968;1284;22925;-77
2023/02/14 08:20:45;;;;;;;28.80;12.50;;;;;;;;;;109912;1284;22131;-77
2023/02/14 08:23:12;;;;;;;29.30;12.90;;;;;;;;;;109879;1284;22412;-77
2023/02/14 08:25:39;;;;;;;28.90;12.10;;;;;;;;;;109962;1265;22153;-77
2023/02/14 08:35:15;;;;;;;32.70;12.70;;;;;;;;;;109973;1265;22152;-77
2023/02/14 08:44:51;;;;;;;25.50;10.90;;;;;;;;;;110147;1257;22132;-77
2023/02/14 08:47:19;;;;;;;28.60;11.20;;;;;;;;;;110153;1280;22143;-77
2023/02/14 08:49:47;;;;;;;24.70;11.20;;;;;;;;;;110228;1280;22991;-78
2023/02/14 08:52:14;;;;;;;25.40;10.80;;;;;;;;;;110205;1280;22882;-77
2023/02/14 08:54:42;;;;;;;26.90;11.30;;;;;;;;;;110367;1259;22189;-78
2023/02/14 08:57:14;;;;;;;24.10;10.90;;;;;;;;;;110242;1280;22767;-77
2023/02/14 08:59:42;;;;;;;23.80;11.50;;;;;;;;;;110205;1280;22219;-78
2023/02/14 09:02:12;;;;;;;29.10;11.40;;;;;;;;;;110225;1280;22107;-78
2023/02/14 09:04:40;;;;;;;23.20;10.30;;;;;;;;;;110246;1259;22173;-77
2023/02/14 09:07:07;;;;;;;28.00;11.50;;;;;;;;;;110232;1280;23063;-77
2023/02/14 09:09:35;;;;;;;26.30;11.30;;;;;;;;;;110228;1280;21997;-77
2023/02/14 09:12:07;;;;;;;25.60;11.20;;;;;;;;;;110162;1280;22406;-77
2023/02/14 09:14:55;;;;;;;22.70;10.50;;;;;;;;;;110313;1259;21789;-77
2023/02/14 09:17:22;;;;;;;24.10;11.10;;;;;;;;;;110095;1280;22102;-77
2023/02/14 09:19:50;;;;;;;27.40;11.90;;;;;;;;;;110211;1280;22100;-77
2023/02/14 09:22:18;;;;;;;23.70;10.50;;;;;;;;;;110229;1280;22118;-77
2023/02/14 09:24:46;;;;;;;21.10;10.00;;;;;;;;;;110276;1256;22255;-78
2023/02/14 09:27:13;;;;;;;19.40;9.20;;;;;;;;;;110145;1280;22127;-77
2023/02/14 09:29:43;;;;;;;20.80;8.80;;;;;;;;;;110224;1280;22215;-85
2023/02/14 09:32:11;;;;;;;18.90;9.40;;;;;;;;;;110145;1280;21999;-77
2023/02/14 09:40:15;;;;;;;22.30;11.30;;;;;;;;;;110267;1279;22104;-77
2023/02/14 09:42:54;;;;;;;25.10;11.60;;;;;;;;;;110100;1279;22154;-78
2023/02/14 09:45:27;;;;;;;27.60;11.90;;;;;;;;;;110248;1256;22135;-77
2023/02/14 09:48:14;;;;;;;23.70;9.70;;;;;;;;;;110147;1280;22137;-78
2023/02/14 09:50:54;;;;;;;23.00;10.60;;;;;;;;;;110079;1280;22134;-77
2023/02/14 09:53:28;;;;;;;26.30;12.20;;;;;;;;;;110072;1280;22049;-77
2023/02/14 09:56:02;;;;;;;27.40;11.60;;;;;;;;;;110093;1259;22173;-78
2023/02/14 09:58:40;;;;;;;21.80;9.40;;;;;;;;;;110271;1279;22133;-77
2023/02/14 10:01:13;;;;;;;22.80;11.30;;;;;;;;;;110106;1279;22296;-78
2023/02/14 10:03:52;;;;;;;20.70;9.50;;;;;;;;;;110256;1279;22052;-77
2023/02/14 10:06:40;;;;;;;23.70;10.20;;;;;;;;;;110166;1263;22807;-77
2023/02/14 10:09:32;;;;;;;21.20;9.70;;;;;;;;;;110054;1280;22439;-77
2023/02/14 10:12:01;;;;;;;24.10;9.90;;;;;;;;;;110159;1280;22101;-77
2023/02/14 10:14:32;;;;;;;18.00;9.40;;;;;;;;;;110146;1280;22114;-77
2023/02/14 10:17:06;;;;;;;82.30;37.90;;;;;;;;;;110297;1262;22110;-77
2023/02/14 10:19:48;;;;;;;117.70;51.40;;;;;;;;;;110169;1279;22122;-77
2023/02/14 10:22:22;;;;;;;47.90;21.40;;;;;;;;;;110103;1279;22780;-78
2023/02/14 10:24:54;;;;;;;39.40;17.40;;;;;;;;;;110248;1279;22862;-78
2023/02/14 10:27:43;;;;;;;28.30;13.40;;;;;;;;;;110405;1260;22128;-77
2023/02/14 10:37:18;;;;;;;37.40;17.40;;;;;;;;;;103817;1296;545130;-84
2023/02/14 10:40:00;;;;;;;20.10;9.10;;;;;;;;;;106190;1288;27254;-77
2023/02/14 10:42:35;;;;;;;26.30;11.30;;;;;;;;;;106201;1288;22809;-85
2023/02/14 10:45:14;;;;;;;18.10;8.60;;;;;;;;;;106231;1288;22667;-82
2023/02/14 10:47:59;;;;;;;24.50;10.70;;;;;;;;;;106215;1269;22553;-81
2023/02/14 10:51:02;;;;;;;21.60;10.60;;;;;;;;;;102327;1285;5403301;-78
2023/02/14 10:53:49;;;;;;;40.00;22.40;;;;;;;;;;105828;1292;25320;-81
2023/02/14 10:56:49;;;;;;;24.20;13.30;;;;;;;;;;105808;1270;22552;-78
2023/02/14 10:59:20;;;;;;;21.60;10.50;;;;;;;;;;105701;1293;24483;-84
2023/02/14 11:01:50;;;;;;;20.10;10.00;;;;;;;;;;105749;1292;23663;-77
2023/02/14 11:04:21;;;;;;;21.00;10.60;;;;;;;;;;105794;1293;23746;-77
2023/02/14 11:06:53;;;;;;;21.40;10.10;;;;;;;;;;105749;1269;22544;-81
2023/02/14 11:09:44;;;;;;;18.90;9.90;;;;;;;;;;105783;1292;22600;-82
2023/02/14 11:12:11;;;;;;;25.70;12.20;;;;;;;;;;105777;1292;25417;-81
2023/02/14 11:14:39;;;;;;;25.80;12.70;;;;;;;;;;105971;1290;22801;-79
2023/02/14 11:17:29;;;;;;;22.30;10.80;;;;;;;;;;105965;1290;22546;-80
2023/02/14 11:20:15;;;;;;;25.20;9.90;;;;;;;;;;105916;1290;22549;-80
2023/02/14 11:22:45;;;;;;;24.00;9.40;;;;;;;;;;106359;1285;22559;-83
2023/02/14 11:25:25;;;;;;;20.80;10.50;;;;;;;;;;106356;1285;25246;-82
2023/02/14 11:28:12;;;;;;;23.70;11.40;;;;;;;;;;106322;1267;22655;-83
2023/02/14 11:30:40;;;;;;;25.30;12.20;;;;;;;;;;106847;1278;26452;-80
2023/02/14 11:33:22;;;;;;;24.50;11.20;;;;;;;;;;106758;1278;25660;-80
2023/02/14 11:35:54;;;;;;;26.70;11.30;;;;;;;;;;106839;1278;22585;-80
2023/02/14 11:38:42;;;;;;;29.60;11.80;;;;;;;;;;106859;1278;22586;-80
2023/02/14 11:41:14;;;;;;;21.80;10.30;;;;;;;;;;106887;1278;25348;-79
2023/02/14 11:43:44;;;;;;;22.70;10.60;;;;;;;;;;106796;1278;22614;-82
2023/02/14 11:46:38;;;;;;;22.70;10.60;;;;;;;;;;106773;1278;24366;-80
2023/02/14 11:49:23;;;;;;;19.90;10.20;;;;;;;;;;106821;1259;25288;-78
2023/02/14 11:52:07;;;;;;;24.30;12.20;;;;;;;;;;106840;1278;25295;-81
2023/02/14 11:54:43;;;;;;;18.10;9.10;;;;;;;;;;106802;1277;22540;-77
2023/02/14 11:57:30;;;;;;;23.20;10.90;;;;;;;;;;106849;1277;22524;-76
2023/02/14 11:59:58;;;;;;;18.00;8.90;;;;;;;;;;106847;1258;22537;-77
2023/02/14 12:02:31;;;;;;;21.80;10.80;;;;;;;;;;106693;1277;25583;-77
2023/02/14 12:05:24;;;;;;;22.30;10.50;;;;;;;;;;106780;1254;24256;-83
2023/02/14 12:07:57;;;;;;;19.30;9.10;;;;;;;;;;106812;1278;22532;-77
2023/02/14 12:10:38;;;;;;;17.30;8.50;;;;;;;;;;106872;1259;22533;-83
2023/02/14 12:13:29;;;;;;;20.40;8.90;;;;;;;;;;106850;1278;25256;-79
2023/02/14 12:16:25;;;;;;;19.50;9.50;;;;;;;;;;106890;1278;24338;-79
2023/02/14 12:19:11;;;;;;;16.30;8.00;;;;;;;;;;106803;1277;23887;-81
2023/02/14 12:21:43;;;;;;;17.10;8.80;;;;;;;;;;106893;1277;25226;-77
2023/02/14 12:24:18;;;;;;;20.50;9.90;;;;;;;;;;106827;1278;22627;-80
2023/02/14 12:27:06;;;;;;;16.60;8.20;;;;;;;;;;106913;1277;25272;-81
2023/02/14 12:29:58;;;;;;;32.40;15.70;;;;;;;;;;106813;1259;22536;-78
2023/02/14 12:32:27;;;;;;;28.20;14.30;;;;;;;;;;106842;1277;25236;-81
2023/02/14 12:35:06;;;;;;;20.40;10.10;;;;;;;;;;106864;1277;22550;-80
2023/02/14 12:37:38;;;;;;;15.60;8.50;;;;;;;;;;106828;1277;24777;-81
2023/02/14 12:40:31;;;;;;;19.70;10.00;;;;;;;;;;106817;1259;23685;-84
2023/02/14 12:43:10;;;;;;;19.90;9.30;;;;;;;;;;106844;1277;22531;-78
2023/02/14 12:46:03;;;;;;;23.40;9.60;;;;;;;;;;106910;1277;25341;-77
2023/02/14 12:48:50;;;;;;;22.60;10.40;;;;;;;;;;106861;1277;24250;-80
2023/02/14 12:51:17;;;;;;;19.00;10.30;;;;;;;;;;106822;1259;24184;-78
2023/02/14 12:53:49;;;;;;;20.10;10.20;;;;;;;;;;106871;1277;22660;-80
2023/02/14 12:56:49;;;;;;;;;;;;;;;;;;;;;
2023/02/14 12:59:37;;;;;;;21.90;9.80;;;;;;;;;;106805;1257;22799;-79
2023/02/14 13:02:37;;;;;;;21.60;10.30;;;;;;;;;;106854;1277;25360;-81
2023/02/14 13:05:33;;;;;;;;;;;;;;;;;;;;;
2023/02/14 13:08:18;;;;;;;24.60;10.70;;;;;;;;;;106848;1277;22532;-81
2023/02/14 13:11:16;;;;;;;23.10;10.10;;;;;;;;;;106926;1259;24222;-79
2023/02/14 13:13:54;;;;;;;17.00;7.80;;;;;;;;;;106423;1284;22603;-80
2023/02/14 13:16:30;;;;;;;48.60;17.50;;;;;;;;;;106459;1265;22666;-79
2023/02/14 13:19:19;;;;;;;27.20;9.70;;;;;;;;;;106425;1284;24267;-80
2023/02/14 13:22:06;;;;;;;22.90;10.50;;;;;;;;;;106423;1284;25394;-78
2023/02/14 13:25:02;;;;;;;22.80;9.10;;;;;;;;;;106421;1283;22546;-78
2023/02/14 13:27:35;;;;;;;16.50;8.40;;;;;;;;;;106494;1276;24273;-77
2023/02/14 13:30:24;;;;;;;17.30;7.80;;;;;;;;;;106431;1263;22710;-80
2023/02/14 13:33:25;;;;;;;32.40;15.30;;;;;;;;;;106171;1274;25253;-79
2023/02/14 13:36:10;;;;;;;33.20;14.10;;;;;;;;;;106115;1284;22565;-78
2023/02/14 13:38:43;;;;;;;26.70;12.00;;;;;;;;;;106195;1284;25271;-78
2023/02/14 13:41:18;;;;;;;29.20;12.90;;;;;;;;;;106251;1266;22763;-79
2023/02/14 13:44:05;;;;;;;21.80;11.20;;;;;;;;;;106310;1284;22550;-77
2023/02/14 13:47:10;;;;;;;20.00;10.30;;;;;;;;;;106300;1284;24391;-77
2023/02/14 13:49:58;;;;;;;25.30;13.10;;;;;;;;;;105764;1292;23314;-81
2023/02/14 13:53:10;;;;;;;;;;;;;;;;;;;;;
2023/02/14 13:56:04;;;;;;;27.30;13.10;;;;;;;;;;105569;1292;24215;-82
2023/02/14 13:58:34;;;;;;;25.50;12.70;;;;;;;;;;105639;1292;22778;-82
2023/02/14 14:01:24;;;;;;;31.50;15.70;;;;;;;;;;105620;1274;23897;-78
2023/02/14 14:03:52;;;;;;;33.50;16.40;;;;;;;;;;105668;1292;22573;-78
2023/02/14 14:06:42;;;;;;;25.50;11.70;;;;;;;;;;105512;1292;22546;-77
2023/02/14 14:09:32;;;;;;;23.70;11.50;;;;;;;;;;105388;1297;22560;-79
2023/02/14 14:12:22;;;;;;;30.40;13.20;;;;;;;;;;105169;1280;24287;-79
2023/02/14 14:15:24;;;;;;;31.40;13.90;;;;;;;;;;105065;1297;21926;-78
2023/02/14 14:18:10;;;;;;;26.10;12.40;;;;;;;;;;105181;1297;22559;-81
2023/02/14 14:21:05;;;;;;;;;;;;;;;;;;;;;
2023/02/14 14:23:41;;;;;;;24.70;11.20;;;;;;;;;;105136;1279;22561;-79
2023/02/14 14:26:39;;;;;;;26.00;12.10;;;;;;;;;;105602;1282;25484;-77
2023/02/14 14:29:49;;;;;;;39.50;18.40;;;;;;;;;;105706;1287;26503;-79
2023/02/14 14:32:57;;;;;;;39.60;20.60;;;;;;;;;;106057;1286;25381;-79
2023/02/14 14:35:53;;;;;;;50.30;22.40;;;;;;;;;;105892;1290;22549;-79
2023/02/14 14:38:40;;;;;;;33.00;14.90;;;;;;;;;;105736;1267;24338;-79
2023/02/14 14:41:16;;;;;;;31.50;13.20;;;;;;;;;;105740;1290;22542;-81
2023/02/14 14:44:22;;;;;;;;;;;;;;;;;;;;;
2023/02/14 14:47:15;;;;;;;24.40;11.30;;;;;;;;;;106170;1284;25300;-79
2023/02/14 14:50:02;;;;;;;45.60;17.60;;;;;;;;;;109861;1284;22158;-77
2023/02/14 14:52:31;;;;;;;38.90;16.10;;;;;;;;;;109975;1265;22402;-76
2023/02/14 14:54:59;;;;;;;40.20;16.50;;;;;;;;;;109951;1284;22423;-76
2023/02/14 14:57:26;;;;;;;27.90;13.20;;;;;;;;;;109960;1284;22259;-76
2023/02/14 15:00:16;;;;;;;27.90;12.90;;;;;;;;;;109953;1284;22178;-76
2023/02/14 15:02:54;;;;;;;25.80;12.70;;;;;;;;;;109879;1268;23230;-76
2023/02/14 15:05:31;;;;;;;30.00;14.20;;;;;;;;;;109919;1279;22229;-77
2023/02/14 15:08:12;;;;;;;36.10;15.30;;;;;;;;;;109916;1284;23068;-76
2023/02/14 15:10:39;;;;;;;34.30;15.90;;;;;;;;;;110082;1278;22108;-76
2023/02/14 15:15:55;;;;;;;30.40;13.30;;;;;;;;;;110290;1278;22354;-76
2023/02/14 15:18:22;;;;;;;36.10;16.70;;;;;;;;;;110365;1278;22112;-76
2023/02/14 15:20:49;;;;;;;38.00;15.80;;;;;;;;;;110286;1278;22173;-76
2023/02/14 15:23:18;;;;;;;33.80;15.30;;;;;;;;;;110419;1259;22210;-76
2023/02/14 15:25:47;;;;;;;31.80;14.80;;;;;;;;;;110258;1278;22409;-77
2023/02/14 15:28:34;;;;;;;31.20;14.90;;;;;;;;;;110398;1278;22140;-76
2023/02/14 15:31:03;;;;;;;29.50;14.60;;;;;;;;;;110333;1278;22110;-76
2023/02/14 15:33:30;;;;;;;29.90;13.70;;;;;;;;;;110303;1262;22124;-76
2023/02/14 15:36:08;;;;;;;32.70;15.40;;;;;;;;;;110311;1278;22337;-76
2023/02/14 15:38:37;;;;;;;30.30;13.50;;;;;;;;;;110310;1278;22135;-76
2023/02/14 15:41:03;;;;;;;32.50;12.90;;;;;;;;;;110323;1278;22160;-76
2023/02/14 15:43:32;;;;;;;30.30;14.10;;;;;;;;;;110292;1259;22908;-76
2023/02/14 15:46:11;;;;;;;25.70;13.60;;;;;;;;;;110289;1278;22144;-77
2023/02/14 15:49:08;;;;;;;28.50;14.00;;;;;;;;;;110321;1278;22359;-76
2023/02/14 15:51:44;;;;;;;29.70;13.20;;;;;;;;;;110292;1278;22148;-78
2023/02/14 15:54:30;;;;;;;29.70;13.30;;;;;;;;;;110391;1262;22204;-76
2023/02/14 15:57:11;;;;;;;31.20;14.30;;;;;;;;;;110245;1278;22790;-77
2023/02/14 15:59:40;;;;;;;26.90;13.00;;;;;;;;;;110261;1272;22620;-77
2023/02/14 16:02:36;;;;;;;;;;;;;;;;;;;;;
2023/02/14 16:05:16;;;;;;;29.60;13.40;;;;;;;;;;110388;1262;22160;-77
2023/02/14 16:07:55;;;;;;;30.70;14.10;;;;;;;;;;110313;1278;22131;-77
2023/02/14 16:10:25;;;;;;;28.70;13.20;;;;;;;;;;110296;1278;22932;-76
2023/02/14 16:13:10;;;;;;;28.70;13.20;;;;;;;;;;110255;1278;22540;-77
2023/02/14 16:15:40;;;;;;;28.20;14.10;;;;;;;;;;110691;1271;22190;-77
2023/02/14 16:18:18;;;;;;;32.10;14.60;;;;;;;;;;110265;1278;22123;-77
2023/02/14 16:20:50;;;;;;;28.60;13.80;;;;;;;;;;110144;1278;22237;-77
2023/02/14 16:23:22;;;;;;;32.40;14.80;;;;;;;;;;110311;1278;22117;-77
2023/02/14 16:25:53;;;;;;;38.20;17.10;;;;;;;;;;110691;1259;22238;-78
2023/02/14 16:28:38;;;;;;;58.30;21.30;;;;;;;;;;110336;1278;22124;-77
2023/02/14 16:31:15;;;;;;;33.40;15.30;;;;;;;;;;110249;1279;22139;-77
2023/02/14 16:33:44;;;;;;;34.60;15.70;;;;;;;;;;110199;1279;22111;-77
2023/02/14 16:36:23;;;;;;;36.70;15.40;;;;;;;;;;110427;1259;22150;-77
2023/02/14 16:39:23;;;;;;;;;;;;;;;;;;;;;
2023/02/14 16:46:20;;;;;;;35.00;14.30;;;;;;;;;;109939;1265;22223;-77
2023/02/14 16:48:50;;;;;;;33.50;14.60;;;;;;;;;;109929;1284;23232;-77
2023/02/14 16:51:21;;;;;;;34.90;15.30;;;;;;;;;;109909;1284;22341;-77
2023/02/14 16:53:48;;;;;;;34.60;15.70;;;;;;;;;;109945;1284;22224;-78
2023/02/14 16:56:23;;;;;;;35.10;14.90;;;;;;;;;;109872;1268;21773;-77
2023/02/14 16:58:49;;;;;;;31.00;14.40;;;;;;;;;;109946;1284;23683;-77
2023/02/14 17:01:16;;;;;;;32.40;14.40;;;;;;;;;;109940;1284;22188;-78
2023/02/14 17:03:43;;;;;;;32.00;14.70;;;;;;;;;;109937;1284;22426;-77
2023/02/14 17:06:12;;;;;;;31.10;14.80;;;;;;;;;;109910;1265;22939;-77
2023/02/14 17:08:40;;;;;;;32.30;14.90;;;;;;;;;;109955;1284;22126;-76
2023/02/14 17:11:08;;;;;;;30.20;15.00;;;;;;;;;;109926;1284;22058;-76
2023/02/14 17:13:37;;;;;;;32.20;15.40;;;;;;;;;;109952;1284;22169;-77
2023/02/14 17:16:05;;;;;;;32.10;15.80;;;;;;;;;;109932;1265;22198;-77
2023/02/14 17:18:32;;;;;;;30.20;14.80;;;;;;;;;;110039;1279;22117;-77
2023/02/14 17:24:52;;;;;;;34.40;15.30;;;;;;;;;;110271;1257;23144;-77
2023/02/14 17:27:19;;;;;;;34.70;16.20;;;;;;;;;;110304;1279;22148;-77
2023/02/14 17:29:45;;;;;;;34.70;16.70;;;;;;;;;;110288;1279;22385;-77
2023/02/14 17:32:12;;;;;;;36.70;16.40;;;;;;;;;;110221;1279;22141;-76
2023/02/14 17:34:39;;;;;;;35.50;16.30;;;;;;;;;;110260;1280;22115;-77
2023/02/14 17:37:06;;;;;;;37.30;16.70;;;;;;;;;;110488;1261;22250;-77